Arcadia, CA (91006)

9:46 PM PDT on July 27, 2016 (GMT -0700)
Monrovia near Santa Anita Golf Course | | Change Station

Elev 430 ft 34.13 °N, 118.02 °W | Updated 4 minutes ago

Clear
Clear
81.3 °F
Feels Like 80 °F
N
0.0
Wind Variable Wind from WNW
Gusts 0.0 mph

Today
High -- | Low -- °F
--% Chance of Precip.
Yesterday
High -- | Low -- °F
Precip. -- in
Pressure 29.87 in
Visibility 10.0 miles
Clouds Clear
Heat Index 80 °F
Dew Point 52 °F
Humidity 32%
Rainfall 0.00 in
Snow Depth Not available.
6:00 AM 7:56 PM
Last Quarter, 36% visible
METAR KCQT 280347Z AUTO 00000KT 10SM CLR 23/18 A2987 RMK AO2 SLP113 T02280183 $
Pressure 29.87 in
Visibility 10.0 miles
Clouds Clear
Heat Index 80 °F
Dew Point 52 °F
Humidity 32%
Rainfall 0.00 in
Snow Depth Not available.
6:00 AM 7:56 PM
Last Quarter, 36% visible
METAR KCQT 280347Z AUTO 00000KT 10SM CLR 23/18 A2987 RMK AO2 SLP113 T02280183 $

10-Day Weather Forecast

Almanac

Astronomy

Jul. 27, 2016 Rise Set
Actual Time
Civil Twilight
Nautical Twilight
Astronomical Twilight
Moon
Length of Visible Light
Length of Day
Tomorrow will be .
, % of the Moon is Illuminated

Today's Extremes

State Highs State Lows

Community

WunderPhotos

Upload Photos

1,928,061 photos uploaded!

WunderBlog® & News

Nearby

Air Quality

  Air Quality AQ Index Pollutant
Not available.

Snow Depth

Station Depth Elevation

Earthquake Activity

City Distance Mag. Time & Date
Minimum magnitude displayed is 2.5.

Coastal Water Temperatures

Place Temperature

Stations

Nearby Weather Stations

Station Location Temp. Windchill Dew Point Humidity Wind Precip. Elev Updated Type
                   

Watches & Warnings

There are currently no watches in effect.